sensor_id;sensor_type;location;lat;lon;timestamp;temperature;humidity
6865;DHT22;3471;49.678;8.388;2022-09-21T00:00:37;10.60;99.90
6865;DHT22;3471;49.678;8.388;2022-09-21T00:03:03;10.70;99.90
6865;DHT22;3471;49.678;8.388;2022-09-21T00:05:29;10.70;99.90
6865;DHT22;3471;49.678;8.388;2022-09-21T00:07:54;10.70;99.90
6865;DHT22;3471;49.678;8.388;2022-09-21T00:10:20;10.70;99.90
6865;DHT22;3471;49.678;8.388;2022-09-21T00:12:46;10.70;99.90
6865;DHT22;3471;49.678;8.388;2022-09-21T00:15:13;10.70;99.90
6865;DHT22;3471;49.678;8.388;2022-09-21T00:17:39;10.70;99.90
6865;DHT22;3471;49.678;8.388;2022-09-21T00:20:05;10.70;99.90
6865;DHT22;3471;49.678;8.388;2022-09-21T00:22:31;10.70;99.90
6865;DHT22;3471;49.678;8.388;2022-09-21T00:24:56;10.70;99.90
6865;DHT22;3471;49.678;8.388;2022-09-21T00:27:22;10.70;99.90
6865;DHT22;3471;49.678;8.388;2022-09-21T00:29:54;10.70;99.90
6865;DHT22;3471;49.678;8.388;2022-09-21T00:32:20;10.70;99.90
6865;DHT22;3471;49.678;8.388;2022-09-21T00:34:45;10.70;99.90
6865;DHT22;3471;49.678;8.388;2022-09-21T00:37:11;10.70;99.90
6865;DHT22;3471;49.678;8.388;2022-09-21T00:39:37;10.70;99.90
6865;DHT22;3471;49.678;8.388;2022-09-21T00:42:08;10.70;99.90
6865;DHT22;3471;49.678;8.388;2022-09-21T00:44:34;10.60;99.90
6865;DHT22;3471;49.678;8.388;2022-09-21T00:47:05;10.50;99.90
6865;DHT22;3471;49.678;8.388;2022-09-21T00:49:32;10.50;99.90
6865;DHT22;3471;49.678;8.388;2022-09-21T00:51:59;10.40;99.90
6865;DHT22;3471;49.678;8.388;2022-09-21T00:54:27;10.40;99.90
6865;DHT22;3471;49.678;8.388;2022-09-21T00:56:54;10.40;99.90
6865;DHT22;3471;49.678;8.388;2022-09-21T00:59:20;10.40;99.90
6865;DHT22;3471;49.678;8.388;2022-09-21T01:01:47;10.30;99.90
6865;DHT22;3471;49.678;8.388;2022-09-21T01:04:12;10.30;99.90
6865;DHT22;3471;49.678;8.388;2022-09-21T01:06:39;10.30;99.90
6865;DHT22;3471;49.678;8.388;2022-09-21T01:09:05;10.20;99.90
6865;DHT22;3471;49.678;8.388;2022-09-21T01:16:34;10.20;99.90
6865;DHT22;3471;49.678;8.388;2022-09-21T01:19:10;10.20;99.90
6865;DHT22;3471;49.678;8.388;2022-09-21T01:29:32;10.00;99.90
6865;DHT22;3471;49.678;8.388;2022-09-21T01:34:35;9.90;99.90
6865;DHT22;3471;49.678;8.388;2022-09-21T01:37:04;9.80;99.90
6865;DHT22;3471;49.678;8.388;2022-09-21T01:39:32;9.80;99.90
6865;DHT22;3471;49.678;8.388;2022-09-21T01:41:57;9.80;99.90
6865;DHT22;3471;49.678;8.388;2022-09-21T01:44:26;9.80;99.90
6865;DHT22;3471;49.678;8.388;2022-09-21T01:46:52;9.80;99.90
6865;DHT22;3471;49.678;8.388;2022-09-21T01:49:26;9.70;99.90
6865;DHT22;3471;49.678;8.388;2022-09-21T01:51:56;9.70;99.90
6865;DHT22;3471;49.678;8.388;2022-09-21T01:54:24;9.70;99.90
6865;DHT22;3471;49.678;8.388;2022-09-21T01:57:06;9.70;99.90
6865;DHT22;3471;49.678;8.388;2022-09-21T01:59:39;9.70;99.90
6865;DHT22;3471;49.678;8.388;2022-09-21T02:02:11;9.70;99.90
6865;DHT22;3471;49.678;8.388;2022-09-21T02:04:38;9.70;99.90
6865;DHT22;3471;49.678;8.388;2022-09-21T02:07:03;9.60;99.90
6865;DHT22;3471;49.678;8.388;2022-09-21T02:09:30;9.60;99.90
6865;DHT22;3471;49.678;8.388;2022-09-21T02:11:56;9.60;99.90
6865;DHT22;3471;49.678;8.388;2022-09-21T02:14:22;9.70;99.90
6865;DHT22;3471;49.678;8.388;2022-09-21T02:24:44;9.70;99.90
6865;DHT22;3471;49.678;8.388;2022-09-21T02:27:21;9.70;99.90
6865;DHT22;3471;49.678;8.388;2022-09-21T02:29:54;9.70;99.90
6865;DHT22;3471;49.678;8.388;2022-09-21T02:32:24;9.70;99.90
6865;DHT22;3471;49.678;8.388;2022-09-21T02:34:58;9.60;99.90
6865;DHT22;3471;49.678;8.388;2022-09-21T02:37:47;9.60;99.90
6865;DHT22;3471;49.678;8.388;2022-09-21T02:42:42;9.50;99.90
6865;DHT22;3471;49.678;8.388;2022-09-21T02:45:22;9.50;99.90
6865;DHT22;3471;49.678;8.388;2022-09-21T02:47:59;9.50;99.90
6865;DHT22;3471;49.678;8.388;2022-09-21T02:50:32;9.40;99.90
6865;DHT22;3471;49.678;8.388;2022-09-21T02:53:00;9.40;99.90
6865;DHT22;3471;49.678;8.388;2022-09-21T02:55:26;9.40;99.90
6865;DHT22;3471;49.678;8.388;2022-09-21T02:57:52;9.40;99.90
6865;DHT22;3471;49.678;8.388;2022-09-21T03:00:18;9.40;99.90
6865;DHT22;3471;49.678;8.388;2022-09-21T03:02:44;9.40;99.90
6865;DHT22;3471;49.678;8.388;2022-09-21T03:05:10;9.30;99.90
6865;DHT22;3471;49.678;8.388;2022-09-21T03:07:37;9.30;99.90
6865;DHT22;3471;49.678;8.388;2022-09-21T03:10:02;9.30;99.90
6865;DHT22;3471;49.678;8.388;2022-09-21T03:12:28;9.20;99.90
6865;DHT22;3471;49.678;8.388;2022-09-21T03:14:54;9.20;99.90
6865;DHT22;3471;49.678;8.388;2022-09-21T03:17:20;9.20;99.90
6865;DHT22;3471;49.678;8.388;2022-09-21T03:19:45;9.20;99.90
6865;DHT22;3471;49.678;8.388;2022-09-21T03:22:11;9.20;99.90
6865;DHT22;3471;49.678;8.388;2022-09-21T03:24:36;9.20;99.90
6865;DHT22;3471;49.678;8.388;2022-09-21T03:27:11;9.20;99.90
6865;DHT22;3471;49.678;8.388;2022-09-21T03:29:37;9.30;99.90
6865;DHT22;3471;49.678;8.388;2022-09-21T03:32:03;9.30;99.90
6865;DHT22;3471;49.678;8.388;2022-09-21T03:34:28;9.20;99.90
6865;DHT22;3471;49.678;8.388;2022-09-21T03:36:59;9.20;99.90
6865;DHT22;3471;49.678;8.388;2022-09-21T03:39:24;9.20;99.90
6865;DHT22;3471;49.678;8.388;2022-09-21T03:41:51;9.20;99.90
6865;DHT22;3471;49.678;8.388;2022-09-21T03:44:16;9.10;99.90
6865;DHT22;3471;49.678;8.388;2022-09-21T03:46:42;9.10;99.90
6865;DHT22;3471;49.678;8.388;2022-09-21T03:49:08;9.10;99.90
6865;DHT22;3471;49.678;8.388;2022-09-21T03:51:33;9.10;99.90
6865;DHT22;3471;49.678;8.388;2022-09-21T03:53:59;9.10;99.90
6865;DHT22;3471;49.678;8.388;2022-09-21T03:56:24;9.10;99.90
6865;DHT22;3471;49.678;8.388;2022-09-21T03:58:50;9.10;99.90
6865;DHT22;3471;49.678;8.388;2022-09-21T04:01:15;9.10;99.90
6865;DHT22;3471;49.678;8.388;2022-09-21T04:03:41;9.10;99.90
6865;DHT22;3471;49.678;8.388;2022-09-21T04:06:07;9.10;99.90
6865;DHT22;3471;49.678;8.388;2022-09-21T04:08:33;9.10;99.90
6865;DHT22;3471;49.678;8.388;2022-09-21T04:10:58;9.10;99.90
6865;DHT22;3471;49.678;8.388;2022-09-21T04:13:24;9.10;99.90
6865;DHT22;3471;49.678;8.388;2022-09-21T04:15:49;9.10;99.90
6865;DHT22;3471;49.678;8.388;2022-09-21T04:18:15;9.10;99.90
6865;DHT22;3471;49.678;8.388;2022-09-21T04:20:40;9.10;99.90
6865;DHT22;3471;49.678;8.388;2022-09-21T04:23:06;9.10;99.90
6865;DHT22;3471;49.678;8.388;2022-09-21T04:25:32;9.10;99.90
6865;DHT22;3471;49.678;8.388;2022-09-21T04:27:58;9.10;99.90
6865;DHT22;3471;49.678;8.388;2022-09-21T04:30:23;9.20;99.90
6865;DHT22;3471;49.678;8.388;2022-09-21T04:32:49;9.20;99.90
6865;DHT22;3471;49.678;8.388;2022-09-21T04:35:14;9.10;99.90
6865;DHT22;3471;49.678;8.388;2022-09-21T04:37:40;9.20;99.90
6865;DHT22;3471;49.678;8.388;2022-09-21T04:40:06;9.20;99.90
6865;DHT22;3471;49.678;8.388;2022-09-21T04:42:32;9.20;99.90
6865;DHT22;3471;49.678;8.388;2022-09-21T04:44:57;9.20;99.90
6865;DHT22;3471;49.678;8.388;2022-09-21T04:47:23;9.20;99.90
6865;DHT22;3471;49.678;8.388;2022-09-21T04:49:49;9.20;99.90
6865;DHT22;3471;49.678;8.388;2022-09-21T04:52:15;9.20;99.90
6865;DHT22;3471;49.678;8.388;2022-09-21T04:54:41;9.20;99.90
6865;DHT22;3471;49.678;8.388;2022-09-21T04:57:06;9.20;99.90
6865;DHT22;3471;49.678;8.388;2022-09-21T04:59:32;9.20;99.90
6865;DHT22;3471;49.678;8.388;2022-09-21T05:01:57;9.20;99.90
6865;DHT22;3471;49.678;8.388;2022-09-21T05:04:23;9.20;99.90
6865;DHT22;3471;49.678;8.388;2022-09-21T05:06:48;9.20;99.90
6865;DHT22;3471;49.678;8.388;2022-09-21T05:09:14;9.20;99.90
6865;DHT22;3471;49.678;8.388;2022-09-21T05:11:57;9.20;99.90
6865;DHT22;3471;49.678;8.388;2022-09-21T05:14:23;9.10;99.90
6865;DHT22;3471;49.678;8.388;2022-09-21T05:16:48;9.20;99.90
6865;DHT22;3471;49.678;8.388;2022-09-21T05:19:14;9.10;99.90
6865;DHT22;3471;49.678;8.388;2022-09-21T05:21:40;9.20;99.90
6865;DHT22;3471;49.678;8.388;2022-09-21T05:24:05;9.20;99.90
6865;DHT22;3471;49.678;8.388;2022-09-21T05:26:31;9.20;99.90
6865;DHT22;3471;49.678;8.388;2022-09-21T05:28:56;9.20;99.90
6865;DHT22;3471;49.678;8.388;2022-09-21T05:33:49;9.20;99.90
6865;DHT22;3471;49.678;8.388;2022-09-21T05:38:47;9.20;99.90
6865;DHT22;3471;49.678;8.388;2022-09-21T05:41:13;9.20;99.90
6865;DHT22;3471;49.678;8.388;2022-09-21T05:43:39;9.20;99.90
6865;DHT22;3471;49.678;8.388;2022-09-21T05:46:07;9.20;99.90
6865;DHT22;3471;49.678;8.388;2022-09-21T05:48:36;9.20;99.90
6865;DHT22;3471;49.678;8.388;2022-09-21T05:56:11;9.20;99.90
6865;DHT22;3471;49.678;8.388;2022-09-21T06:03:44;9.40;99.90
6865;DHT22;3471;49.678;8.388;2022-09-21T06:06:12;9.40;99.90
6865;DHT22;3471;49.678;8.388;2022-09-21T06:08:38;9.50;99.90
6865;DHT22;3471;49.678;8.388;2022-09-21T06:11:04;9.60;99.90
6865;DHT22;3471;49.678;8.388;2022-09-21T06:13:29;9.60;99.90
6865;DHT22;3471;49.678;8.388;2022-09-21T06:15:55;9.70;99.90
6865;DHT22;3471;49.678;8.388;2022-09-21T06:18:21;9.80;99.90
6865;DHT22;3471;49.678;8.388;2022-09-21T06:20:46;9.80;99.90
6865;DHT22;3471;49.678;8.388;2022-09-21T06:23:12;9.90;99.90
6865;DHT22;3471;49.678;8.388;2022-09-21T06:25:38;10.00;99.90
6865;DHT22;3471;49.678;8.388;2022-09-21T06:28:07;10.10;99.90
6865;DHT22;3471;49.678;8.388;2022-09-21T06:30:34;10.10;99.90
6865;DHT22;3471;49.678;8.388;2022-09-21T06:33:00;10.20;99.90
6865;DHT22;3471;49.678;8.388;2022-09-21T06:35:29;10.30;99.90
6865;DHT22;3471;49.678;8.388;2022-09-21T06:37:58;10.40;99.90
6865;DHT22;3471;49.678;8.388;2022-09-21T06:40:25;10.40;99.90
6865;DHT22;3471;49.678;8.388;2022-09-21T06:42:53;10.40;99.90
6865;DHT22;3471;49.678;8.388;2022-09-21T06:45:19;10.50;99.90
6865;DHT22;3471;49.678;8.388;2022-09-21T06:47:47;10.60;99.90
6865;DHT22;3471;49.678;8.388;2022-09-21T06:50:13;10.60;99.90
6865;DHT22;3471;49.678;8.388;2022-09-21T06:52:38;10.70;99.90
6865;DHT22;3471;49.678;8.388;2022-09-21T06:55:06;10.80;99.90
6865;DHT22;3471;49.678;8.388;2022-09-21T06:57:32;10.90;99.90
6865;DHT22;3471;49.678;8.388;2022-09-21T06:59:57;11.00;99.90
6865;DHT22;3471;49.678;8.388;2022-09-21T07:02:23;11.10;99.90
6865;DHT22;3471;49.678;8.388;2022-09-21T07:04:48;11.20;99.90
6865;DHT22;3471;49.678;8.388;2022-09-21T07:07:14;11.30;99.90
6865;DHT22;3471;49.678;8.388;2022-09-21T07:09:40;11.30;99.90
6865;DHT22;3471;49.678;8.388;2022-09-21T07:12:05;11.40;99.90
6865;DHT22;3471;49.678;8.388;2022-09-21T07:14:32;11.50;99.90
6865;DHT22;3471;49.678;8.388;2022-09-21T07:16:57;11.60;99.90
6865;DHT22;3471;49.678;8.388;2022-09-21T07:19:23;11.70;99.90
6865;DHT22;3471;49.678;8.388;2022-09-21T07:21:51;11.80;99.90
6865;DHT22;3471;49.678;8.388;2022-09-21T07:24:17;11.80;99.90
6865;DHT22;3471;49.678;8.388;2022-09-21T07:26:42;11.90;99.90
6865;DHT22;3471;49.678;8.388;2022-09-21T07:29:08;11.90;99.90
6865;DHT22;3471;49.678;8.388;2022-09-21T07:31:34;12.00;99.90
6865;DHT22;3471;49.678;8.388;2022-09-21T07:33:59;12.10;99.90
6865;DHT22;3471;49.678;8.388;2022-09-21T07:36:25;12.10;99.90
6865;DHT22;3471;49.678;8.388;2022-09-21T07:38:51;12.20;99.90
6865;DHT22;3471;49.678;8.388;2022-09-21T07:41:18;12.20;99.90
6865;DHT22;3471;49.678;8.388;2022-09-21T07:43:43;12.30;99.90
6865;DHT22;3471;49.678;8.388;2022-09-21T07:46:10;12.40;99.90
6865;DHT22;3471;49.678;8.388;2022-09-21T07:48:36;12.40;99.90
6865;DHT22;3471;49.678;8.388;2022-09-21T07:51:02;12.50;99.90
6865;DHT22;3471;49.678;8.388;2022-09-21T07:53:34;12.60;99.90
6865;DHT22;3471;49.678;8.388;2022-09-21T07:56:03;12.80;99.90
6865;DHT22;3471;49.678;8.388;2022-09-21T07:58:29;13.00;99.90
6865;DHT22;3471;49.678;8.388;2022-09-21T08:01:13;13.10;99.90
6865;DHT22;3471;49.678;8.388;2022-09-21T08:03:38;13.30;99.90
6865;DHT22;3471;49.678;8.388;2022-09-21T08:06:04;13.40;99.90
6865;DHT22;3471;49.678;8.388;2022-09-21T08:08:29;13.60;99.90
6865;DHT22;3471;49.678;8.388;2022-09-21T08:10:55;13.70;99.90
6865;DHT22;3471;49.678;8.388;2022-09-21T08:13:26;13.80;99.90
6865;DHT22;3471;49.678;8.388;2022-09-21T08:16:00;14.00;99.90
6865;DHT22;3471;49.678;8.388;2022-09-21T08:18:26;14.10;99.90
6865;DHT22;3471;49.678;8.388;2022-09-21T08:20:55;14.20;99.90
6865;DHT22;3471;49.678;8.388;2022-09-21T08:23:21;14.30;99.90
6865;DHT22;3471;49.678;8.388;2022-09-21T08:25:47;14.40;99.90
6865;DHT22;3471;49.678;8.388;2022-09-21T08:28:12;14.50;99.90
6865;DHT22;3471;49.678;8.388;2022-09-21T08:30:39;14.70;99.90
6865;DHT22;3471;49.678;8.388;2022-09-21T08:33:04;14.90;99.90
6865;DHT22;3471;49.678;8.388;2022-09-21T08:35:31;15.00;99.90
6865;DHT22;3471;49.678;8.388;2022-09-21T08:37:59;15.10;99.90
6865;DHT22;3471;49.678;8.388;2022-09-21T08:40:24;15.30;99.90
6865;DHT22;3471;49.678;8.388;2022-09-21T08:42:53;15.40;99.90
6865;DHT22;3471;49.678;8.388;2022-09-21T08:45:20;15.50;99.90
6865;DHT22;3471;49.678;8.388;2022-09-21T08:47:48;15.70;99.90
6865;DHT22;3471;49.678;8.388;2022-09-21T08:53:00;15.90;99.90
6865;DHT22;3471;49.678;8.388;2022-09-21T08:55:26;15.90;99.90
6865;DHT22;3471;49.678;8.388;2022-09-21T08:57:52;16.00;99.90
6865;DHT22;3471;49.678;8.388;2022-09-21T09:00:18;16.10;99.90
6865;DHT22;3471;49.678;8.388;2022-09-21T09:10:35;16.70;99.90
6865;DHT22;3471;49.678;8.388;2022-09-21T09:20:35;17.00;99.90
6865;DHT22;3471;49.678;8.388;2022-09-21T09:25:26;17.10;99.90
6865;DHT22;3471;49.678;8.388;2022-09-21T09:27:57;17.20;99.90
6865;DHT22;3471;49.678;8.388;2022-09-21T09:30:24;17.20;99.90
6865;DHT22;3471;49.678;8.388;2022-09-21T09:35:24;17.40;99.90
6865;DHT22;3471;49.678;8.388;2022-09-21T09:37:50;17.50;99.90
6865;DHT22;3471;49.678;8.388;2022-09-21T09:40:19;17.50;99.90
6865;DHT22;3471;49.678;8.388;2022-09-21T09:43:00;17.60;99.90
6865;DHT22;3471;49.678;8.388;2022-09-21T09:45:32;17.70;99.90
6865;DHT22;3471;49.678;8.388;2022-09-21T09:52:52;17.80;99.90
6865;DHT22;3471;49.678;8.388;2022-09-21T09:55:26;17.80;99.90
6865;DHT22;3471;49.678;8.388;2022-09-21T09:57:54;17.90;99.90
6865;DHT22;3471;49.678;8.388;2022-09-21T10:00:20;18.10;99.90
6865;DHT22;3471;49.678;8.388;2022-09-21T10:02:50;18.20;99.90
6865;DHT22;3471;49.678;8.388;2022-09-21T10:05:20;18.40;99.90
6865;DHT22;3471;49.678;8.388;2022-09-21T10:07:46;18.50;99.90
6865;DHT22;3471;49.678;8.388;2022-09-21T10:10:21;18.60;99.90
6865;DHT22;3471;49.678;8.388;2022-09-21T10:12:47;18.70;99.90
6865;DHT22;3471;49.678;8.388;2022-09-21T10:15:13;18.80;99.90
6865;DHT22;3471;49.678;8.388;2022-09-21T10:17:40;18.90;99.90
6865;DHT22;3471;49.678;8.388;2022-09-21T10:20:13;19.00;99.90
6865;DHT22;3471;49.678;8.388;2022-09-21T10:22:40;19.20;99.90
6865;DHT22;3471;49.678;8.388;2022-09-21T10:25:13;19.30;99.90
6865;DHT22;3471;49.678;8.388;2022-09-21T10:27:41;19.50;99.90
6865;DHT22;3471;49.678;8.388;2022-09-21T10:30:12;19.70;99.90
6865;DHT22;3471;49.678;8.388;2022-09-21T10:32:53;19.90;99.90
6865;DHT22;3471;49.678;8.388;2022-09-21T10:35:19;20.20;99.90
6865;DHT22;3471;49.678;8.388;2022-09-21T10:37:45;20.40;99.90
6865;DHT22;3471;49.678;8.388;2022-09-21T10:42:43;20.80;99.90
6865;DHT22;3471;49.678;8.388;2022-09-21T10:45:16;21.00;99.90
6865;DHT22;3471;49.678;8.388;2022-09-21T10:47:49;21.10;99.90
6865;DHT22;3471;49.678;8.388;2022-09-21T10:50:23;21.20;99.90
6865;DHT22;3471;49.678;8.388;2022-09-21T10:52:50;21.40;99.90
6865;DHT22;3471;49.678;8.388;2022-09-21T10:55:21;21.50;99.90
6865;DHT22;3471;49.678;8.388;2022-09-21T10:57:47;21.60;99.90
6865;DHT22;3471;49.678;8.388;2022-09-21T11:02:48;22.00;99.90
6865;DHT22;3471;49.678;8.388;2022-09-21T11:05:16;22.10;99.90
6865;DHT22;3471;49.678;8.388;2022-09-21T11:07:46;22.30;99.90
6865;DHT22;3471;49.678;8.388;2022-09-21T11:15:22;22.60;99.90
6865;DHT22;3471;49.678;8.388;2022-09-21T11:18:04;22.80;99.90
6865;DHT22;3471;49.678;8.388;2022-09-21T11:25:45;23.10;99.90
6865;DHT22;3471;49.678;8.388;2022-09-21T11:28:18;23.30;99.90
6865;DHT22;3471;49.678;8.388;2022-09-21T11:36:02;24.00;99.90
6865;DHT22;3471;49.678;8.388;2022-09-21T11:41:23;24.50;99.90
6865;DHT22;3471;49.678;8.388;2022-09-21T11:43:57;24.70;99.80
6865;DHT22;3471;49.678;8.388;2022-09-21T11:57:01;24.90;98.40
6865;DHT22;3471;49.678;8.388;2022-09-21T11:59:52;25.00;99.90
6865;DHT22;3471;49.678;8.388;2022-09-21T12:21:23;27.70;95.20
6865;DHT22;3471;49.678;8.388;2022-09-21T12:23:54;27.90;91.70
6865;DHT22;3471;49.678;8.388;2022-09-21T12:29:27;28.00;92.70
6865;DHT22;3471;49.678;8.388;2022-09-21T12:34:21;28.20;91.10
6865;DHT22;3471;49.678;8.388;2022-09-21T12:39:24;28.70;92.80
6865;DHT22;3471;49.678;8.388;2022-09-21T12:44:38;29.30;86.80
6865;DHT22;3471;49.678;8.388;2022-09-21T12:47:24;29.50;87.70
6865;DHT22;3471;49.678;8.388;2022-09-21T12:49:52;29.50;92.10
6865;DHT22;3471;49.678;8.388;2022-09-21T12:52:22;29.30;89.60
6865;DHT22;3471;49.678;8.388;2022-09-21T12:57:44;28.60;92.10
6865;DHT22;3471;49.678;8.388;2022-09-21T13:00:15;28.50;85.80
6865;DHT22;3471;49.678;8.388;2022-09-21T13:02:44;28.40;88.70
6865;DHT22;3471;49.678;8.388;2022-09-21T13:10:34;27.60;90.60
6865;DHT22;3471;49.678;8.388;2022-09-21T13:13:04;27.30;88.90
6865;DHT22;3471;49.678;8.388;2022-09-21T13:15:44;26.50;88.80
6865;DHT22;3471;49.678;8.388;2022-09-21T13:20:46;25.80;94.60
6865;DHT22;3471;49.678;8.388;2022-09-21T13:23:15;26.40;93.90
6865;DHT22;3471;49.678;8.388;2022-09-21T13:25:41;27.20;93.10
6865;DHT22;3471;49.678;8.388;2022-09-21T13:30:41;29.00;91.70
6865;DHT22;3471;49.678;8.388;2022-09-21T13:43:58;29.20;83.00
6865;DHT22;3471;49.678;8.388;2022-09-21T13:49:21;27.10;85.40
6865;DHT22;3471;49.678;8.388;2022-09-21T13:51:49;26.20;85.50
6865;DHT22;3471;49.678;8.388;2022-09-21T13:54:15;25.60;92.20
6865;DHT22;3471;49.678;8.388;2022-09-21T13:56:41;25.80;91.60
6865;DHT22;3471;49.678;8.388;2022-09-21T13:59:16;26.40;89.40
6865;DHT22;3471;49.678;8.388;2022-09-21T14:01:44;27.10;90.20
6865;DHT22;3471;49.678;8.388;2022-09-21T14:06:42;27.70;83.40
6865;DHT22;3471;49.678;8.388;2022-09-21T14:09:26;27.80;86.90
6865;DHT22;3471;49.678;8.388;2022-09-21T14:11:57;28.30;88.10
6865;DHT22;3471;49.678;8.388;2022-09-21T14:16:53;29.90;87.50
6865;DHT22;3471;49.678;8.388;2022-09-21T14:24:36;31.30;82.00
6865;DHT22;3471;49.678;8.388;2022-09-21T14:27:04;31.70;76.70
6865;DHT22;3471;49.678;8.388;2022-09-21T14:29:44;31.70;81.70
6865;DHT22;3471;49.678;8.388;2022-09-21T14:32:18;31.50;74.50
6865;DHT22;3471;49.678;8.388;2022-09-21T14:34:48;31.30;78.00
6865;DHT22;3471;49.678;8.388;2022-09-21T14:37:33;30.50;79.40
6865;DHT22;3471;49.678;8.388;2022-09-21T14:40:02;29.50;70.70
6865;DHT22;3471;49.678;8.388;2022-09-21T14:42:29;28.50;78.00
6865;DHT22;3471;49.678;8.388;2022-09-21T14:44:59;28.40;81.00
6865;DHT22;3471;49.678;8.388;2022-09-21T15:00:19;31.30;77.10
6865;DHT22;3471;49.678;8.388;2022-09-21T15:06:06;31.90;70.70
6865;DHT22;3471;49.678;8.388;2022-09-21T15:08:59;32.20;72.10
6865;DHT22;3471;49.678;8.388;2022-09-21T15:11:50;32.40;70.30
6865;DHT22;3471;49.678;8.388;2022-09-21T15:14:19;32.70;69.90
6865;DHT22;3471;49.678;8.388;2022-09-21T15:16:47;32.80;74.80
6865;DHT22;3471;49.678;8.388;2022-09-21T15:21:47;32.40;76.50
6865;DHT22;3471;49.678;8.388;2022-09-21T15:24:28;32.00;72.90
6865;DHT22;3471;49.678;8.388;2022-09-21T15:29:28;31.40;71.70
6865;DHT22;3471;49.678;8.388;2022-09-21T15:31:55;31.10;71.90
6865;DHT22;3471;49.678;8.388;2022-09-21T15:34:21;31.10;70.40
6865;DHT22;3471;49.678;8.388;2022-09-21T15:36:48;30.70;72.50
6865;DHT22;3471;49.678;8.388;2022-09-21T15:39:34;30.00;67.50
6865;DHT22;3471;49.678;8.388;2022-09-21T15:44:35;28.70;71.60
6865;DHT22;3471;49.678;8.388;2022-09-21T15:47:07;28.10;72.70
6865;DHT22;3471;49.678;8.388;2022-09-21T15:49:34;27.30;70.50
6865;DHT22;3471;49.678;8.388;2022-09-21T15:52:04;26.30;72.30
6865;DHT22;3471;49.678;8.388;2022-09-21T15:54:35;25.30;76.30
6865;DHT22;3471;49.678;8.388;2022-09-21T15:57:02;24.30;78.70
6865;DHT22;3471;49.678;8.388;2022-09-21T15:59:29;23.50;80.80
6865;DHT22;3471;49.678;8.388;2022-09-21T16:01:56;22.90;78.20
6865;DHT22;3471;49.678;8.388;2022-09-21T16:04:23;22.40;77.50
6865;DHT22;3471;49.678;8.388;2022-09-21T16:09:38;21.40;87.90
6865;DHT22;3471;49.678;8.388;2022-09-21T16:15:22;20.70;82.10
6865;DHT22;3471;49.678;8.388;2022-09-21T16:17:52;20.40;88.50
6865;DHT22;3471;49.678;8.388;2022-09-21T16:20:18;20.10;87.30
6865;DHT22;3471;49.678;8.388;2022-09-21T16:22:48;19.90;92.70
6865;DHT22;3471;49.678;8.388;2022-09-21T16:27:49;19.50;91.10
6865;DHT22;3471;49.678;8.388;2022-09-21T16:33:00;19.10;88.00
6865;DHT22;3471;49.678;8.388;2022-09-21T16:35:26;19.00;86.20
6865;DHT22;3471;49.678;8.388;2022-09-21T16:37:58;18.80;88.20
6865;DHT22;3471;49.678;8.388;2022-09-21T16:40:24;18.70;91.40
6865;DHT22;3471;49.678;8.388;2022-09-21T16:42:51;18.60;90.30
6865;DHT22;3471;49.678;8.388;2022-09-21T16:45:21;18.60;89.90
6865;DHT22;3471;49.678;8.388;2022-09-21T16:47:48;18.60;90.50
6865;DHT22;3471;49.678;8.388;2022-09-21T16:50:13;18.50;89.70
6865;DHT22;3471;49.678;8.388;2022-09-21T16:52:43;18.50;90.50
6865;DHT22;3471;49.678;8.388;2022-09-21T16:55:18;18.30;90.30
6865;DHT22;3471;49.678;8.388;2022-09-21T16:57:44;18.20;90.70
6865;DHT22;3471;49.678;8.388;2022-09-21T17:00:13;18.10;94.30
6865;DHT22;3471;49.678;8.388;2022-09-21T17:02:43;18.00;92.00
6865;DHT22;3471;49.678;8.388;2022-09-21T17:05:09;17.90;91.60
6865;DHT22;3471;49.678;8.388;2022-09-21T17:07:35;17.80;91.70
6865;DHT22;3471;49.678;8.388;2022-09-21T17:10:00;17.80;90.60
6865;DHT22;3471;49.678;8.388;2022-09-21T17:12:34;17.90;91.30
6865;DHT22;3471;49.678;8.388;2022-09-21T17:15:00;17.80;90.70
6865;DHT22;3471;49.678;8.388;2022-09-21T17:17:29;17.80;90.60
6865;DHT22;3471;49.678;8.388;2022-09-21T17:19:57;17.80;90.70
6865;DHT22;3471;49.678;8.388;2022-09-21T17:22:23;17.80;90.80
6865;DHT22;3471;49.678;8.388;2022-09-21T17:24:49;17.70;91.30
6865;DHT22;3471;49.678;8.388;2022-09-21T17:27:16;17.70;91.40
6865;DHT22;3471;49.678;8.388;2022-09-21T17:29:42;17.70;91.60
6865;DHT22;3471;49.678;8.388;2022-09-21T17:32:13;17.60;91.20
6865;DHT22;3471;49.678;8.388;2022-09-21T17:34:39;17.60;91.70
6865;DHT22;3471;49.678;8.388;2022-09-21T17:37:05;17.60;91.80
6865;DHT22;3471;49.678;8.388;2022-09-21T17:39:31;17.50;91.80
6865;DHT22;3471;49.678;8.388;2022-09-21T17:47:24;17.30;93.70
6865;DHT22;3471;49.678;8.388;2022-09-21T17:49:52;17.20;93.70
6865;DHT22;3471;49.678;8.388;2022-09-21T17:52:19;17.10;93.70
6865;DHT22;3471;49.678;8.388;2022-09-21T17:55:03;17.00;94.00
6865;DHT22;3471;49.678;8.388;2022-09-21T18:00:09;16.90;94.70
6865;DHT22;3471;49.678;8.388;2022-09-21T18:02:36;16.80;94.80
6865;DHT22;3471;49.678;8.388;2022-09-21T18:05:02;16.70;95.40
6865;DHT22;3471;49.678;8.388;2022-09-21T18:07:28;16.60;95.10
6865;DHT22;3471;49.678;8.388;2022-09-21T18:09:54;16.60;95.50
6865;DHT22;3471;49.678;8.388;2022-09-21T18:12:36;16.50;96.10
6865;DHT22;3471;49.678;8.388;2022-09-21T18:17:51;16.40;96.40
6865;DHT22;3471;49.678;8.388;2022-09-21T18:25:27;16.30;97.80
6865;DHT22;3471;49.678;8.388;2022-09-21T18:27:53;16.20;97.80
6865;DHT22;3471;49.678;8.388;2022-09-21T18:30:21;16.20;98.30
6865;DHT22;3471;49.678;8.388;2022-09-21T18:35:27;16.20;99.00
6865;DHT22;3471;49.678;8.388;2022-09-21T18:56:03;15.70;99.10
6865;DHT22;3471;49.678;8.388;2022-09-21T18:58:30;15.70;98.30
6865;DHT22;3471;49.678;8.388;2022-09-21T19:00:55;15.60;98.20
6865;DHT22;3471;49.678;8.388;2022-09-21T19:03:21;15.60;98.80
6865;DHT22;3471;49.678;8.388;2022-09-21T19:05:52;15.60;98.80
6865;DHT22;3471;49.678;8.388;2022-09-21T19:08:38;15.50;99.40
6865;DHT22;3471;49.678;8.388;2022-09-21T19:31:55;15.00;99.90
6865;DHT22;3471;49.678;8.388;2022-09-21T19:34:20;15.00;99.90
6865;DHT22;3471;49.678;8.388;2022-09-21T19:36:46;14.90;99.90
6865;DHT22;3471;49.678;8.388;2022-09-21T19:39:12;14.80;99.90
6865;DHT22;3471;49.678;8.388;2022-09-21T19:47:07;14.60;99.90
6865;DHT22;3471;49.678;8.388;2022-09-21T19:49:35;14.60;99.90
6865;DHT22;3471;49.678;8.388;2022-09-21T19:52:03;14.50;99.90
6865;DHT22;3471;49.678;8.388;2022-09-21T19:54:29;14.40;99.90
6865;DHT22;3471;49.678;8.388;2022-09-21T19:57:17;14.40;99.90
6865;DHT22;3471;49.678;8.388;2022-09-21T20:00:06;14.30;99.90
6865;DHT22;3471;49.678;8.388;2022-09-21T20:02:33;14.30;99.90
6865;DHT22;3471;49.678;8.388;2022-09-21T20:12:39;14.10;99.90
6865;DHT22;3471;49.678;8.388;2022-09-21T20:15:14;14.10;99.90
6865;DHT22;3471;49.678;8.388;2022-09-21T20:17:44;14.00;99.90
6865;DHT22;3471;49.678;8.388;2022-09-21T20:20:13;14.00;99.90
6865;DHT22;3471;49.678;8.388;2022-09-21T20:22:39;13.90;99.90
6865;DHT22;3471;49.678;8.388;2022-09-21T20:27:33;13.90;99.90
6865;DHT22;3471;49.678;8.388;2022-09-21T20:30:02;13.90;99.90
6865;DHT22;3471;49.678;8.388;2022-09-21T20:32:28;13.90;99.90
6865;DHT22;3471;49.678;8.388;2022-09-21T20:34:54;13.80;99.90
6865;DHT22;3471;49.678;8.388;2022-09-21T20:37:19;13.80;99.90
6865;DHT22;3471;49.678;8.388;2022-09-21T20:39:46;13.80;99.90
6865;DHT22;3471;49.678;8.388;2022-09-21T20:42:18;13.70;99.90
6865;DHT22;3471;49.678;8.388;2022-09-21T20:44:45;13.70;99.90
6865;DHT22;3471;49.678;8.388;2022-09-21T20:47:10;13.70;99.90
6865;DHT22;3471;49.678;8.388;2022-09-21T20:49:36;13.60;99.90
6865;DHT22;3471;49.678;8.388;2022-09-21T20:52:01;13.60;99.90